Florianópolis, Brazil

12:33 AM -03 em 26 de Março de 2017 (GMT -0300)
Hercilio Luz International | | Change Station

Elev 16 ft 27.67 °S, 48.55 °W | Updated 33 minutes ago

Scattered Clouds
Nuvens Dispersas
72 °F
Aparente 72 °F
N
5
Vento Variável Vento de Norte

Hoje
Máxima -- | Mínima -- °F
--% Possibilidade de Precip.
Ontem
Máxima -- | Mínima -- °F
Precip. -- pol
Pressão 30.01 pol
Visibilidade 6.2 milhas
Nuvens Poucas 1300 ft
Nuvens Dispersas 2400 ft
Ponto de Orvalho 68 °F
Humidade 88%
Chuva 0.00 pol
Altura de Neve Não disponível
6:20 AM 6:18 PM
Quarto minguante, 5% visible
METAR SBFL 260300Z 35004KT 9999 VCSH FEW013 SCT024 22/20 Q1016
Pressão 30.01 pol
Visibilidade 6.2 milhas
Nuvens Poucas 1300 ft
Nuvens Dispersas 2400 ft
Ponto de Orvalho 68 °F
Humidade 88%
Chuva 0.00 pol
Altura de Neve Não disponível
6:20 AM 6:18 PM
Quarto minguante, 5% visible
METAR SBFL 260300Z 35004KT 9999 VCSH FEW013 SCT024 22/20 Q1016

Get Severe Weather Alerts

Thanks for signing up!

Be on the lookout for a verification email in your inbox.

You'll start receiving the daily forecast at 8 AM.

×

10-Day Weather Forecast

No radar image for this location.
×

Almanac

Astronomia

Mar. 26, 2017 Nascer Pôr
Hora atual
Crepúsculo civil
Crepúsculo náutico
Crepúsculo astronómico
Lua
Comprimento da luz visível
Duração do Dia
Tomorrow will be .
, % of the Moon is Illuminated

Extremos de Hoje

Altitude na localidade Altura mais baixa na localidade

Community

WunderPhotos

Upload Photos

1,962,540 fotografias inseridas!

WunderBlog® & News

Nearby

Qualidade do Ar

  Qualidade do Ar Índice da Q.A. Poluente
Not available.

Altura da Neve

Estação altura Altitude

Actividade Sísmisca

Cidade Distância Mag. Hora & Data
Mínima magnitude apresentada é 2.5.

Actividade Sísmisca

Cidade Distância Mag. Hora & Data
Mínima magnitude apresentada é 2.5.

Temperaturas das Águas Costeiras

Local Temperatura

Stations

Estações Meteorológicas Próximas

Localização da Estação Temp. Sensação Térmica Ponto de Orvalho Humidade Vento Precip. Elev Actualizado Tipo